sensor_id;sensor_type;location;lat;lon;timestamp;pressure;altitude;pressure_sealevel;temperature;humidity
37298;BME280;30517;51.932;4.278;2023-05-13T00:02:35;102221.28;;;19.77;56.88
37298;BME280;30517;51.932;4.278;2023-05-13T00:05:15;102187.69;;;19.57;57.12
37298;BME280;30517;51.932;4.278;2023-05-13T00:07:56;102179.78;;;19.53;56.98
37298;BME280;30517;51.932;4.278;2023-05-13T00:10:41;102227.59;;;19.73;57.10
37298;BME280;30517;51.932;4.278;2023-05-13T00:13:21;102224.06;;;19.71;57.00
37298;BME280;30517;51.932;4.278;2023-05-13T00:16:02;102219.63;;;19.70;56.94
37298;BME280;30517;51.932;4.278;2023-05-13T00:18:43;102188.75;;;19.49;56.92
37298;BME280;30517;51.932;4.278;2023-05-13T00:21:24;102179.06;;;19.41;57.09
37298;BME280;30517;51.932;4.278;2023-05-13T00:24:05;102222.41;;;19.63;56.91
37298;BME280;30517;51.932;4.278;2023-05-13T00:26:46;102224.22;;;19.61;57.16
37298;BME280;30517;51.932;4.278;2023-05-13T00:29:27;102175.59;;;19.36;57.23
37298;BME280;30517;51.932;4.278;2023-05-13T00:32:08;102174.81;;;19.31;57.19
37298;BME280;30517;51.932;4.278;2023-05-13T00:34:49;102176.56;;;19.32;57.24
37298;BME280;30517;51.932;4.278;2023-05-13T00:37:30;102225.22;;;19.54;57.50
37298;BME280;30517;51.932;4.278;2023-05-13T00:40:21;102194.16;;;19.44;57.15
37298;BME280;30517;51.932;4.278;2023-05-13T00:43:01;102218.13;;;19.53;57.42
37298;BME280;30517;51.932;4.278;2023-05-13T00:45:42;102223.53;;;19.50;57.08
37298;BME280;30517;51.932;4.278;2023-05-13T00:48:23;102197.00;;;19.36;57.27
37298;BME280;30517;51.932;4.278;2023-05-13T00:51:04;102221.78;;;19.48;57.39
37298;BME280;30517;51.932;4.278;2023-05-13T00:53:45;102197.16;;;19.27;57.23
37298;BME280;30517;51.932;4.278;2023-05-13T00:56:26;102199.72;;;19.33;57.27
37298;BME280;30517;51.932;4.278;2023-05-13T00:59:07;102216.56;;;19.40;57.14
37298;BME280;30517;51.932;4.278;2023-05-13T01:02:06;102186.63;;;19.18;57.48
37298;BME280;30517;51.932;4.278;2023-05-13T01:10:49;102216.63;;;19.35;57.05
37298;BME280;30517;51.932;4.278;2023-05-13T01:13:36;102184.88;;;19.15;57.25
37298;BME280;30517;51.932;4.278;2023-05-13T01:16:29;102212.25;;;19.31;57.31
37298;BME280;30517;51.932;4.278;2023-05-13T01:19:34;102214.94;;;19.31;57.15
37298;BME280;30517;51.932;4.278;2023-05-13T01:22:18;102186.69;;;19.12;57.28
37298;BME280;30517;51.932;4.278;2023-05-13T01:24:59;102151.41;;;18.91;57.19
37298;BME280;30517;51.932;4.278;2023-05-13T01:27:40;102201.75;;;19.19;57.15
37298;BME280;30517;51.932;4.278;2023-05-13T01:30:21;102186.78;;;19.07;57.60
37298;BME280;30517;51.932;4.278;2023-05-13T01:33:02;102217.75;;;19.22;57.35
37298;BME280;30517;51.932;4.278;2023-05-13T01:35:44;102194.81;;;19.07;57.24
37298;BME280;30517;51.932;4.278;2023-05-13T01:38:27;102191.22;;;19.10;57.29
37298;BME280;30517;51.932;4.278;2023-05-13T01:41:08;102214.22;;;19.20;56.99
37298;BME280;30517;51.932;4.278;2023-05-13T01:43:49;102109.16;;;18.54;57.19
37298;BME280;30517;51.932;4.278;2023-05-13T01:46:30;102185.22;;;18.92;57.21
37298;BME280;30517;51.932;4.278;2023-05-13T01:49:11;102203.88;;;18.98;57.58
37298;BME280;30517;51.932;4.278;2023-05-13T01:51:52;102226.81;;;19.13;57.54
37298;BME280;30517;51.932;4.278;2023-05-13T01:54:33;102204.72;;;19.00;57.26
37298;BME280;30517;51.932;4.278;2023-05-13T01:57:14;102220.63;;;19.10;57.44
37298;BME280;30517;51.932;4.278;2023-05-13T01:59:55;102206.56;;;18.98;56.80
37298;BME280;30517;51.932;4.278;2023-05-13T02:02:36;102191.50;;;18.91;57.28
37298;BME280;30517;51.932;4.278;2023-05-13T02:05:17;102174.75;;;18.80;57.26
37298;BME280;30517;51.932;4.278;2023-05-13T02:07:57;102221.56;;;19.06;57.15
37298;BME280;30517;51.932;4.278;2023-05-13T02:10:38;102222.50;;;19.05;57.07
37298;BME280;30517;51.932;4.278;2023-05-13T02:13:19;102211.97;;;18.94;57.06
37298;BME280;30517;51.932;4.278;2023-05-13T02:16:00;102185.50;;;18.77;57.13
37298;BME280;30517;51.932;4.278;2023-05-13T02:18:41;102188.16;;;18.75;57.19
37298;BME280;30517;51.932;4.278;2023-05-13T02:21:22;102210.22;;;18.91;57.01
37298;BME280;30517;51.932;4.278;2023-05-13T02:24:03;102189.06;;;18.76;57.17
37298;BME280;30517;51.932;4.278;2023-05-13T02:26:44;102220.84;;;18.94;56.89
37298;BME280;30517;51.932;4.278;2023-05-13T02:29:25;102228.88;;;18.93;57.06
37298;BME280;30517;51.932;4.278;2023-05-13T02:32:06;102226.25;;;18.91;56.96
37298;BME280;30517;51.932;4.278;2023-05-13T02:34:46;102229.84;;;18.90;57.40
37298;BME280;30517;51.932;4.278;2023-05-13T02:37:28;102233.44;;;18.88;57.34
37298;BME280;30517;51.932;4.278;2023-05-13T02:40:09;102229.88;;;18.87;57.04
37298;BME280;30517;51.932;4.278;2023-05-13T02:42:50;102235.25;;;18.84;57.10
37298;BME280;30517;51.932;4.278;2023-05-13T02:45:32;102239.72;;;18.84;57.06
37298;BME280;30517;51.932;4.278;2023-05-13T02:48:13;102235.31;;;18.81;57.09
37298;BME280;30517;51.932;4.278;2023-05-13T02:50:54;102234.47;;;18.77;57.09
37298;BME280;30517;51.932;4.278;2023-05-13T02:53:34;102228.28;;;18.71;57.01
37298;BME280;30517;51.932;4.278;2023-05-13T02:56:16;102235.38;;;18.76;56.86
37298;BME280;30517;51.932;4.278;2023-05-13T02:58:56;102212.44;;;18.58;57.07
37298;BME280;30517;51.932;4.278;2023-05-13T03:01:37;102237.19;;;18.74;57.01
37298;BME280;30517;51.932;4.278;2023-05-13T03:04:18;102230.06;;;18.72;56.97
37298;BME280;30517;51.932;4.278;2023-05-13T03:06:59;102233.63;;;18.71;56.93
37298;BME280;30517;51.932;4.278;2023-05-13T03:09:40;102214.25;;;18.55;57.03
37298;BME280;30517;51.932;4.278;2023-05-13T03:12:21;102230.13;;;18.67;57.21
37298;BME280;30517;51.932;4.278;2023-05-13T03:15:02;102242.63;;;18.65;56.96
37298;BME280;30517;51.932;4.278;2023-05-13T03:17:44;102208.13;;;18.47;57.25
37298;BME280;30517;51.932;4.278;2023-05-13T03:20:24;102243.59;;;18.61;57.00
37298;BME280;30517;51.932;4.278;2023-05-13T03:23:05;102215.25;;;18.46;57.33
37298;BME280;30517;51.932;4.278;2023-05-13T03:25:46;102224.94;;;18.56;57.03
37298;BME280;30517;51.932;4.278;2023-05-13T03:28:27;102188.78;;;18.28;56.95
37298;BME280;30517;51.932;4.278;2023-05-13T03:31:08;102212.72;;;18.37;56.93
37298;BME280;30517;51.932;4.278;2023-05-13T03:33:49;102207.47;;;18.31;57.05
37298;BME280;30517;51.932;4.278;2023-05-13T03:36:31;102212.78;;;18.34;57.33
37298;BME280;30517;51.932;4.278;2023-05-13T03:39:11;102202.19;;;18.25;57.01
37298;BME280;30517;51.932;4.278;2023-05-13T03:41:52;102165.16;;;17.97;57.12
37298;BME280;30517;51.932;4.278;2023-05-13T03:44:33;102157.16;;;17.97;57.13
37298;BME280;30517;51.932;4.278;2023-05-13T03:47:14;102240.31;;;18.39;57.12
37298;BME280;30517;51.932;4.278;2023-05-13T03:49:55;102214.72;;;18.20;57.18
37298;BME280;30517;51.932;4.278;2023-05-13T03:52:35;102231.56;;;18.26;57.07
37298;BME280;30517;51.932;4.278;2023-05-13T03:55:16;102228.97;;;18.19;57.13
37298;BME280;30517;51.932;4.278;2023-05-13T03:57:57;102254.63;;;18.30;57.20
37298;BME280;30517;51.932;4.278;2023-05-13T04:00:38;102227.28;;;18.11;57.17
37298;BME280;30517;51.932;4.278;2023-05-13T04:03:18;102247.69;;;18.17;57.19
37298;BME280;30517;51.932;4.278;2023-05-13T04:05:59;102224.59;;;18.11;57.16
37298;BME280;30517;51.932;4.278;2023-05-13T04:08:40;102252.97;;;18.22;57.23
37298;BME280;30517;51.932;4.278;2023-05-13T04:11:22;102242.41;;;18.11;57.17
37298;BME280;30517;51.932;4.278;2023-05-13T04:14:03;102233.59;;;18.03;57.20
37298;BME280;30517;51.932;4.278;2023-05-13T04:16:44;102248.72;;;18.05;56.88
37298;BME280;30517;51.932;4.278;2023-05-13T04:19:24;102258.44;;;18.12;57.35
37298;BME280;30517;51.932;4.278;2023-05-13T04:22:05;102256.63;;;18.11;57.26
37298;BME280;30517;51.932;4.278;2023-05-13T04:24:46;102260.25;;;18.07;57.26
37298;BME280;30517;51.932;4.278;2023-05-13T04:27:30;102248.78;;;17.99;57.30
37298;BME280;30517;51.932;4.278;2023-05-13T04:30:12;102267.47;;;17.99;57.59
37298;BME280;30517;51.932;4.278;2023-05-13T04:32:53;102261.25;;;17.96;57.18
37298;BME280;30517;51.932;4.278;2023-05-13T04:35:34;102234.75;;;17.76;57.33
37298;BME280;30517;51.932;4.278;2023-05-13T04:38:14;102234.72;;;17.82;57.34
37298;BME280;30517;51.932;4.278;2023-05-13T04:40:55;102269.28;;;17.96;57.59
37298;BME280;30517;51.932;4.278;2023-05-13T04:43:36;102238.28;;;17.78;57.27
37298;BME280;30517;51.932;4.278;2023-05-13T04:46:17;102243.63;;;17.78;57.53
37298;BME280;30517;51.932;4.278;2023-05-13T04:48:58;102220.59;;;17.66;57.28
37298;BME280;30517;51.932;4.278;2023-05-13T04:51:38;102264.03;;;17.86;57.51
37298;BME280;30517;51.932;4.278;2023-05-13T04:54:19;102280.97;;;17.85;57.49
37298;BME280;30517;51.932;4.278;2023-05-13T04:57:01;102266.75;;;17.83;57.21
37298;BME280;30517;51.932;4.278;2023-05-13T04:59:42;102256.97;;;17.76;57.14
37298;BME280;30517;51.932;4.278;2023-05-13T05:02:22;102146.50;;;17.03;57.22
37298;BME280;30517;51.932;4.278;2023-05-13T05:05:03;102261.50;;;17.68;57.38
37298;BME280;30517;51.932;4.278;2023-05-13T05:07:44;102210.22;;;17.37;57.30
37298;BME280;30517;51.932;4.278;2023-05-13T05:10:25;102276.59;;;17.72;57.34
37298;BME280;30517;51.932;4.278;2023-05-13T05:13:08;102286.41;;;17.72;57.63
37298;BME280;30517;51.932;4.278;2023-05-13T05:15:50;102269.53;;;17.65;57.57
37298;BME280;30517;51.932;4.278;2023-05-13T05:18:30;102267.81;;;17.59;57.44
37298;BME280;30517;51.932;4.278;2023-05-13T05:21:11;102276.63;;;17.66;57.82
37298;BME280;30517;51.932;4.278;2023-05-13T05:23:53;102262.50;;;17.56;57.44
37298;BME280;30517;51.932;4.278;2023-05-13T05:26:34;102259.91;;;17.47;57.48
37298;BME280;30517;51.932;4.278;2023-05-13T05:29:14;102281.13;;;17.62;57.50
37298;BME280;30517;51.932;4.278;2023-05-13T05:31:55;102278.56;;;17.53;57.58
37298;BME280;30517;51.932;4.278;2023-05-13T05:34:37;102282.03;;;17.60;57.46
37298;BME280;30517;51.932;4.278;2023-05-13T05:37:18;102288.28;;;17.57;57.46
37298;BME280;30517;51.932;4.278;2023-05-13T05:39:59;102295.41;;;17.58;58.27
37298;BME280;30517;51.932;4.278;2023-05-13T05:42:39;102274.13;;;17.49;58.15
37298;BME280;30517;51.932;4.278;2023-05-13T05:45:20;102260.84;;;17.41;57.82
37298;BME280;30517;51.932;4.278;2023-05-13T05:48:02;102263.50;;;17.41;58.42
37298;BME280;30517;51.932;4.278;2023-05-13T05:50:43;102294.53;;;17.55;58.07
37298;BME280;30517;51.932;4.278;2023-05-13T05:53:23;102217.59;;;17.04;58.06
37298;BME280;30517;51.932;4.278;2023-05-13T05:56:04;102291.00;;;17.53;58.45
37298;BME280;30517;51.932;4.278;2023-05-13T05:58:45;102267.97;;;17.42;58.36
37298;BME280;30517;51.932;4.278;2023-05-13T06:01:28;102269.81;;;17.33;58.31
37298;BME280;30517;51.932;4.278;2023-05-13T06:07:50;102230.00;;;17.08;58.35
37298;BME280;30517;51.932;4.278;2023-05-13T06:10:31;102298.16;;;17.46;58.47
37298;BME280;30517;51.932;4.278;2023-05-13T06:13:15;102273.38;;;17.30;58.48
37298;BME280;30517;51.932;4.278;2023-05-13T06:15:56;102295.50;;;17.46;58.16
37298;BME280;30517;51.932;4.278;2023-05-13T06:18:37;102299.94;;;17.44;58.47
37298;BME280;30517;51.932;4.278;2023-05-13T06:21:17;102300.84;;;17.44;58.55
37298;BME280;30517;51.932;4.278;2023-05-13T06:23:59;102262.78;;;17.21;58.32
37298;BME280;30517;51.932;4.278;2023-05-13T06:26:41;102303.53;;;17.43;58.49
37298;BME280;30517;51.932;4.278;2023-05-13T06:29:23;102307.97;;;17.42;58.28
37298;BME280;30517;51.932;4.278;2023-05-13T06:32:04;102269.84;;;17.25;58.51
37298;BME280;30517;51.932;4.278;2023-05-13T06:34:45;102266.34;;;17.21;58.31
37298;BME280;30517;51.932;4.278;2023-05-13T06:37:26;102294.66;;;17.39;58.69
37298;BME280;30517;51.932;4.278;2023-05-13T06:40:07;102282.25;;;17.32;58.74
37298;BME280;30517;51.932;4.278;2023-05-13T06:42:48;102296.44;;;17.42;58.84
37298;BME280;30517;51.932;4.278;2023-05-13T06:45:29;102303.53;;;17.43;58.29
37298;BME280;30517;51.932;4.278;2023-05-13T06:48:09;102304.44;;;17.42;58.41
37298;BME280;30517;51.932;4.278;2023-05-13T06:50:50;102303.53;;;17.43;58.31
37298;BME280;30517;51.932;4.278;2023-05-13T06:53:31;102305.31;;;17.42;58.29
37298;BME280;30517;51.932;4.278;2023-05-13T06:56:12;102298.25;;;17.32;58.74
37298;BME280;30517;51.932;4.278;2023-05-13T06:58:53;102287.56;;;17.35;58.77
37298;BME280;30517;51.932;4.278;2023-05-13T07:01:34;102308.84;;;17.44;58.71
37298;BME280;30517;51.932;4.278;2023-05-13T07:04:15;102301.75;;;17.45;58.72
37298;BME280;30517;51.932;4.278;2023-05-13T07:06:56;102317.72;;;17.48;58.46
37298;BME280;30517;51.932;4.278;2023-05-13T07:09:37;102299.97;;;17.41;58.22
37298;BME280;30517;51.932;4.278;2023-05-13T07:12:17;102293.75;;;17.42;58.27
37298;BME280;30517;51.932;4.278;2023-05-13T07:14:58;102288.44;;;17.42;58.38
37298;BME280;30517;51.932;4.278;2023-05-13T07:17:39;102313.25;;;17.50;58.71
37298;BME280;30517;51.932;4.278;2023-05-13T07:20:21;102274.25;;;17.34;58.52
37298;BME280;30517;51.932;4.278;2023-05-13T07:23:02;102284.84;;;17.43;58.58
37298;BME280;30517;51.932;4.278;2023-05-13T07:25:43;102282.25;;;17.32;58.58
37298;BME280;30517;51.932;4.278;2023-05-13T07:28:24;102246.78;;;17.24;58.65
37298;BME280;30517;51.932;4.278;2023-05-13T07:31:05;102298.97;;;17.54;58.69
37298;BME280;30517;51.932;4.278;2023-05-13T07:33:46;102290.09;;;17.55;58.38
37298;BME280;30517;51.932;4.278;2023-05-13T07:36:27;102293.66;;;17.56;58.64
37298;BME280;30517;51.932;4.278;2023-05-13T07:39:07;102269.75;;;17.40;58.94
37298;BME280;30517;51.932;4.278;2023-05-13T07:41:48;102299.84;;;17.59;58.64
37298;BME280;30517;51.932;4.278;2023-05-13T07:44:29;102320.25;;;17.60;59.09
37298;BME280;30517;51.932;4.278;2023-05-13T07:47:10;102300.69;;;17.63;58.71
37298;BME280;30517;51.932;4.278;2023-05-13T07:49:51;102275.03;;;17.46;58.57
37298;BME280;30517;51.932;4.278;2023-05-13T07:52:32;102294.47;;;17.64;58.46
37298;BME280;30517;51.932;4.278;2023-05-13T07:55:14;102301.59;;;17.63;58.51
37298;BME280;30517;51.932;4.278;2023-05-13T07:58:13;102294.47;;;17.62;58.88
37298;BME280;30517;51.932;4.278;2023-05-13T08:00:54;102280.28;;;17.59;58.72
37298;BME280;30517;51.932;4.278;2023-05-13T08:03:34;102273.19;;;17.56;58.67
37298;BME280;30517;51.932;4.278;2023-05-13T08:06:15;102267.88;;;17.53;58.51
37298;BME280;30517;51.932;4.278;2023-05-13T08:08:56;102292.66;;;17.69;58.72
37298;BME280;30517;51.932;4.278;2023-05-13T08:11:37;102231.56;;;17.37;58.82
37298;BME280;30517;51.932;4.278;2023-05-13T08:14:18;102243.91;;;17.48;58.66
37298;BME280;30517;51.932;4.278;2023-05-13T08:16:59;102262.50;;;17.56;58.84
37298;BME280;30517;51.932;4.278;2023-05-13T08:19:40;102280.22;;;17.66;58.87
37298;BME280;30517;51.932;4.278;2023-05-13T08:22:20;102296.13;;;17.79;58.66
37298;BME280;30517;51.932;4.278;2023-05-13T08:25:02;102294.34;;;17.79;58.50
37298;BME280;30517;51.932;4.278;2023-05-13T08:27:43;102293.44;;;17.82;58.61
37298;BME280;30517;51.932;4.278;2023-05-13T08:30:23;102297.00;;;17.82;59.03
37298;BME280;30517;51.932;4.278;2023-05-13T08:33:04;102292.56;;;17.78;59.09
37298;BME280;30517;51.932;4.278;2023-05-13T08:35:46;102248.22;;;17.60;58.98
37298;BME280;30517;51.932;4.278;2023-05-13T08:38:27;102292.56;;;17.81;59.00
37298;BME280;30517;51.932;4.278;2023-05-13T08:41:10;102273.91;;;17.74;59.14
37298;BME280;30517;51.932;4.278;2023-05-13T08:43:53;102293.44;;;17.85;59.10
37298;BME280;30517;51.932;4.278;2023-05-13T08:46:35;102300.47;;;17.92;59.34
37298;BME280;30517;51.932;4.278;2023-05-13T08:49:18;102301.34;;;17.94;59.21
37298;BME280;30517;51.932;4.278;2023-05-13T08:51:59;102292.47;;;17.87;59.25
37298;BME280;30517;51.932;4.278;2023-05-13T08:54:42;102261.50;;;17.69;59.40
37298;BME280;30517;51.932;4.278;2023-05-13T08:57:23;102282.78;;;17.80;58.97
37298;BME280;30517;51.932;4.278;2023-05-13T09:00:04;102297.72;;;18.00;59.21
37298;BME280;30517;51.932;4.278;2023-05-13T09:02:45;102288.88;;;17.95;59.26
37298;BME280;30517;51.932;4.278;2023-05-13T09:05:26;102272.06;;;17.82;59.11
37298;BME280;30517;51.932;4.278;2023-05-13T09:08:08;102307.47;;;18.02;59.03
37298;BME280;30517;51.932;4.278;2023-05-13T09:10:49;102287.91;;;18.00;58.82
37298;BME280;30517;51.932;4.278;2023-05-13T09:13:30;102294.09;;;18.05;58.97
37298;BME280;30517;51.932;4.278;2023-05-13T09:16:10;102289.72;;;17.98;59.22
37298;BME280;30517;51.932;4.278;2023-05-13T09:19:02;102302.94;;;18.12;59.18
37298;BME280;30517;51.932;4.278;2023-05-13T09:21:43;102296.66;;;18.14;59.30
37298;BME280;30517;51.932;4.278;2023-05-13T09:24:24;102303.75;;;18.17;59.19
37298;BME280;30517;51.932;4.278;2023-05-13T09:27:05;102301.09;;;18.19;59.16
37298;BME280;30517;51.932;4.278;2023-05-13T09:29:57;102280.75;;;18.05;58.88
37298;BME280;30517;51.932;4.278;2023-05-13T09:32:40;102310.84;;;18.23;59.13
37298;BME280;30517;51.932;4.278;2023-05-13T09:35:21;102271.03;;;18.01;59.05
37298;BME280;30517;51.932;4.278;2023-05-13T09:38:20;102307.22;;;18.27;59.14
37298;BME280;30517;51.932;4.278;2023-05-13T09:41:02;102294.81;;;18.20;59.25
37298;BME280;30517;51.932;4.278;2023-05-13T09:43:43;102293.94;;;18.19;59.32
37298;BME280;30517;51.932;4.278;2023-05-13T09:46:24;102270.88;;;18.15;59.43
37298;BME280;30517;51.932;4.278;2023-05-13T09:49:04;102292.88;;;18.37;59.10
37298;BME280;30517;51.932;4.278;2023-05-13T09:51:45;102296.41;;;18.36;59.24
37298;BME280;30517;51.932;4.278;2023-05-13T09:54:33;102308.84;;;18.40;59.22
37298;BME280;30517;51.932;4.278;2023-05-13T09:57:14;102272.50;;;18.28;59.58
37298;BME280;30517;51.932;4.278;2023-05-13T10:00:01;102301.69;;;18.45;59.31
37298;BME280;30517;51.932;4.278;2023-05-13T10:02:44;102296.34;;;18.45;58.75
37298;BME280;30517;51.932;4.278;2023-05-13T10:05:25;102287.44;;;18.43;58.67
37298;BME280;30517;51.932;4.278;2023-05-13T10:08:08;102300.72;;;18.52;58.83
37298;BME280;30517;51.932;4.278;2023-05-13T10:10:53;102274.09;;;18.43;58.80
37298;BME280;30517;51.932;4.278;2023-05-13T10:13:35;102275.94;;;18.38;58.58
37298;BME280;30517;51.932;4.278;2023-05-13T10:16:16;102274.09;;;18.43;58.81
37298;BME280;30517;51.932;4.278;2023-05-13T10:18:58;102290.81;;;18.61;59.04
37298;BME280;30517;51.932;4.278;2023-05-13T10:21:40;102275.75;;;18.53;58.88
37298;BME280;30517;51.932;4.278;2023-05-13T10:24:21;102265.97;;;18.49;58.69
37298;BME280;30517;51.932;4.278;2023-05-13T10:27:04;102277.44;;;18.61;58.87
37298;BME280;30517;51.932;4.278;2023-05-13T10:29:46;102274.78;;;18.61;58.95
37298;BME280;30517;51.932;4.278;2023-05-13T10:32:32;102292.44;;;18.71;58.54
37298;BME280;30517;51.932;4.278;2023-05-13T10:35:18;102273.84;;;18.62;58.83
37298;BME280;30517;51.932;4.278;2023-05-13T10:41:07;102288.81;;;18.76;58.88
37298;BME280;30517;51.932;4.278;2023-05-13T10:43:56;102278.19;;;18.70;58.91
37298;BME280;30517;51.932;4.278;2023-05-13T10:46:38;102284.47;;;18.68;58.22
37298;BME280;30517;51.932;4.278;2023-05-13T10:49:21;102272.91;;;18.66;57.72
37298;BME280;30517;51.932;4.278;2023-05-13T10:52:08;102290.56;;;18.79;58.20
37298;BME280;30517;51.932;4.278;2023-05-13T10:55:00;102283.41;;;18.83;58.17
37298;BME280;30517;51.932;4.278;2023-05-13T10:58:03;102302.09;;;18.86;58.32
37298;BME280;30517;51.932;4.278;2023-05-13T11:00:44;102189.63;;;18.33;58.27
37298;BME280;30517;51.932;4.278;2023-05-13T11:03:26;102284.16;;;18.92;58.17
37298;BME280;30517;51.932;4.278;2023-05-13T11:06:16;102285.91;;;18.95;57.99
37298;BME280;30517;51.932;4.278;2023-05-13T11:08:57;102261.25;;;18.74;57.21
37298;BME280;30517;51.932;4.278;2023-05-13T11:11:39;102284.16;;;18.94;57.67
37298;BME280;30517;51.932;4.278;2023-05-13T11:14:23;102277.84;;;18.98;57.88
37298;BME280;30517;51.932;4.278;2023-05-13T11:17:09;102267.97;;;19.03;57.92
37298;BME280;30517;51.932;4.278;2023-05-13T11:19:51;102277.63;;;19.12;57.72
37298;BME280;30517;51.932;4.278;2023-05-13T11:22:32;102282.03;;;19.16;57.40
37298;BME280;30517;51.932;4.278;2023-05-13T11:25:13;102249.28;;;19.00;57.35
37298;BME280;30517;51.932;4.278;2023-05-13T11:27:54;102258.13;;;19.07;57.66
37298;BME280;30517;51.932;4.278;2023-05-13T11:30:35;102276.56;;;19.23;57.24
37298;BME280;30517;51.932;4.278;2023-05-13T11:33:16;102181.94;;;18.75;57.21
37298;BME280;30517;51.932;4.278;2023-05-13T11:35:57;102280.94;;;19.29;57.53
37298;BME280;30517;51.932;4.278;2023-05-13T11:38:38;102263.13;;;19.28;57.41
37298;BME280;30517;51.932;4.278;2023-05-13T11:41:19;102260.41;;;19.30;57.46
37298;BME280;30517;51.932;4.278;2023-05-13T11:44:01;102271.88;;;19.39;57.59
37298;BME280;30517;51.932;4.278;2023-05-13T11:46:57;102270.94;;;19.42;57.54
37298;BME280;30517;51.932;4.278;2023-05-13T11:49:40;102262.78;;;19.48;57.40
37298;BME280;30517;51.932;4.278;2023-05-13T11:52:21;102246.81;;;19.43;57.50
37298;BME280;30517;51.932;4.278;2023-05-13T11:55:02;102231.75;;;19.38;57.26
37298;BME280;30517;51.932;4.278;2023-05-13T11:57:47;102200.63;;;19.32;57.29
37298;BME280;30517;51.932;4.278;2023-05-13T12:00:29;102220.94;;;19.44;57.36
37298;BME280;30517;51.932;4.278;2023-05-13T12:03:11;102254.47;;;19.65;57.34
37298;BME280;30517;51.932;4.278;2023-05-13T12:06:03;102195.09;;;19.41;57.43
37298;BME280;30517;51.932;4.278;2023-05-13T12:08:44;102254.34;;;19.74;57.12
37298;BME280;30517;51.932;4.278;2023-05-13T12:11:26;102244.47;;;19.76;57.17
37298;BME280;30517;51.932;4.278;2023-05-13T12:14:07;102247.16;;;19.78;57.28
37298;BME280;30517;51.932;4.278;2023-05-13T12:16:48;102238.09;;;19.85;57.48
37298;BME280;30517;51.932;4.278;2023-05-13T12:19:30;102220.38;;;19.76;57.25
37298;BME280;30517;51.932;4.278;2023-05-13T12:22:10;102244.13;;;19.95;57.37
37298;BME280;30517;51.932;4.278;2023-05-13T12:24:51;102243.19;;;19.99;57.08
37298;BME280;30517;51.932;4.278;2023-05-13T12:27:32;102231.63;;;19.97;57.24
37298;BME280;30517;51.932;4.278;2023-05-13T12:30:13;102163.50;;;19.63;57.17
37298;BME280;30517;51.932;4.278;2023-05-13T12:32:57;102242.91;;;20.13;57.05
37298;BME280;30517;51.932;4.278;2023-05-13T12:35:38;102228.63;;;20.12;57.06
37298;BME280;30517;51.932;4.278;2023-05-13T12:38:22;102248.94;;;20.24;56.74
37298;BME280;30517;51.932;4.278;2023-05-13T12:41:10;102244.38;;;20.27;56.98
37298;BME280;30517;51.932;4.278;2023-05-13T12:43:56;102179.84;;;19.96;56.54
37298;BME280;30517;51.932;4.278;2023-05-13T12:46:37;102209.81;;;20.15;56.77
37298;BME280;30517;51.932;4.278;2023-05-13T12:49:19;102251.19;;;20.44;56.63
37298;BME280;30517;51.932;4.278;2023-05-13T12:52:00;102243.94;;;20.49;56.38
37298;BME280;30517;51.932;4.278;2023-05-13T12:54:43;102233.25;;;20.47;56.03
37298;BME280;30517;51.932;4.278;2023-05-13T12:57:24;102199.63;;;20.32;56.50
37298;BME280;30517;51.932;4.278;2023-05-13T13:00:05;102251.75;;;20.61;56.32
37298;BME280;30517;51.932;4.278;2023-05-13T13:02:46;102248.16;;;20.62;56.28
37298;BME280;30517;51.932;4.278;2023-05-13T13:05:27;102251.41;;;20.76;56.28
37298;BME280;30517;51.932;4.278;2023-05-13T13:08:08;102194.72;;;20.53;56.12
37298;BME280;30517;51.932;4.278;2023-05-13T13:10:49;102198.16;;;20.60;55.98
37298;BME280;30517;51.932;4.278;2023-05-13T13:13:30;102212.09;;;20.75;56.29
37298;BME280;30517;51.932;4.278;2023-05-13T13:16:11;102244.66;;;20.97;56.24
37298;BME280;30517;51.932;4.278;2023-05-13T13:18:52;102243.63;;;21.03;56.03
37298;BME280;30517;51.932;4.278;2023-05-13T13:21:35;102254.19;;;21.11;55.92
37298;BME280;30517;51.932;4.278;2023-05-13T13:24:15;102239.75;;;21.16;55.87
37298;BME280;30517;51.932;4.278;2023-05-13T13:26:57;102234.25;;;21.23;55.91
37298;BME280;30517;51.932;4.278;2023-05-13T13:29:38;102240.34;;;21.28;55.91
37298;BME280;30517;51.932;4.278;2023-05-13T13:32:19;102215.47;;;21.23;55.79
37298;BME280;30517;51.932;4.278;2023-05-13T13:35:00;102232.97;;;21.39;55.79
37298;BME280;30517;51.932;4.278;2023-05-13T13:37:42;102231.94;;;21.45;55.84
37298;BME280;30517;51.932;4.278;2023-05-13T13:40:23;102236.28;;;21.49;55.87
37298;BME280;30517;51.932;4.278;2023-05-13T13:43:05;102229.88;;;21.54;55.42
37298;BME280;30517;51.932;4.278;2023-05-13T13:45:46;102227.94;;;21.59;55.66
37298;BME280;30517;51.932;4.278;2023-05-13T13:48:27;102234.94;;;21.67;55.50
37298;BME280;30517;51.932;4.278;2023-05-13T13:51:08;102227.66;;;21.72;55.54
37298;BME280;30517;51.932;4.278;2023-05-13T13:53:48;102208.88;;;21.70;55.30
37298;BME280;30517;51.932;4.278;2023-05-13T13:56:30;102211.44;;;21.75;54.95
37298;BME280;30517;51.932;4.278;2023-05-13T13:59:15;102190.84;;;21.75;54.97
37298;BME280;30517;51.932;4.278;2023-05-13T14:01:58;102228.81;;;21.94;55.27
37298;BME280;30517;51.932;4.278;2023-05-13T14:04:39;102213.41;;;22.01;55.01
37298;BME280;30517;51.932;4.278;2023-05-13T14:07:20;102220.53;;;22.02;55.09
37298;BME280;30517;51.932;4.278;2023-05-13T14:10:00;102203.53;;;22.01;51.91
37298;BME280;30517;51.932;4.278;2023-05-13T14:12:41;102198.75;;;22.11;53.71
37298;BME280;30517;51.932;4.278;2023-05-13T14:15:22;102201.41;;;22.13;54.00
37298;BME280;30517;51.932;4.278;2023-05-13T14:18:07;102209.13;;;22.25;54.19
37298;BME280;30517;51.932;4.278;2023-05-13T14:20:48;102196.72;;;22.21;54.33